createdAt,value
2018-12-27T02:21:03.900Z,6.10
2018-12-27T02:23:33.188Z,6.10
2018-12-27T02:26:02.487Z,6.10
2018-12-27T02:28:31.786Z,6.00
2018-12-27T02:31:01.048Z,6.00
2018-12-27T02:33:35.234Z,5.80
2018-12-27T02:36:01.373Z,5.60
2018-12-27T02:38:30.636Z,5.70
2018-12-27T02:40:59.892Z,5.60
2018-12-27T02:43:29.127Z,5.60
2018-12-27T02:45:58.394Z,5.70
2018-12-27T02:48:27.567Z,5.70
2018-12-27T02:50:56.752Z,5.70
2018-12-27T02:53:25.999Z,5.70
2018-12-27T02:55:55.215Z,5.70
2018-12-27T02:58:24.490Z,5.70
2018-12-27T03:00:53.761Z,5.60
2018-12-27T03:03:22.956Z,5.60
2018-12-27T03:05:52.192Z,5.60
2018-12-27T03:08:21.536Z,5.50
2018-12-27T03:10:50.863Z,5.50
2018-12-27T03:13:20.099Z,5.50
2018-12-27T03:15:49.460Z,5.50
2018-12-27T03:18:18.841Z,5.40
2018-12-27T03:20:48.055Z,5.40
2018-12-27T03:23:17.344Z,5.30
2018-12-27T03:25:46.569Z,5.30
2018-12-27T03:28:15.839Z,5.30
2018-12-27T03:30:45.098Z,5.30
2018-12-27T03:33:14.712Z,5.20
2018-12-27T03:35:43.935Z,5.20
2018-12-27T03:38:13.084Z,5.10
2018-12-27T03:40:42.264Z,5.20
2018-12-27T03:43:11.430Z,5.10
2018-12-27T03:45:40.686Z,5.10
2018-12-27T03:48:09.912Z,5.10
2018-12-27T03:50:39.166Z,5.10
2018-12-27T03:53:08.444Z,5.00
2018-12-27T03:55:37.768Z,4.90
2018-12-27T03:58:07.060Z,4.90
2018-12-27T04:00:36.384Z,4.80
2018-12-27T04:03:05.632Z,4.80
2018-12-27T04:05:34.996Z,4.70
2018-12-27T04:08:04.221Z,4.70
2018-12-27T04:10:33.468Z,4.70
2018-12-27T04:13:02.811Z,4.70
2018-12-27T04:15:32.328Z,4.60
2018-12-27T04:18:01.498Z,4.60
2018-12-27T04:20:30.722Z,4.60
2018-12-27T04:22:59.947Z,4.50
2018-12-27T04:25:29.774Z,4.50
2018-12-27T04:27:58.982Z,4.60
2018-12-27T04:30:28.263Z,4.70
2018-12-27T04:32:58.238Z,4.80
2018-12-27T04:35:27.611Z,4.80
2018-12-27T04:37:56.775Z,4.90
2018-12-27T04:40:25.987Z,5.10
2018-12-27T04:42:55.885Z,5.10
2018-12-27T04:45:25.040Z,5.10
2018-12-27T04:47:54.207Z,5.10
2018-12-27T04:50:23.363Z,5.20
2018-12-27T04:52:52.547Z,5.20
2018-12-27T04:55:21.700Z,5.30
2018-12-27T04:57:50.875Z,5.30
2018-12-27T05:00:20.040Z,5.30
2018-12-27T05:02:49.208Z,5.30
2018-12-27T05:05:18.368Z,5.30
2018-12-27T05:07:47.525Z,5.20
2018-12-27T05:10:16.689Z,5.20
2018-12-27T05:12:45.867Z,5.00
2018-12-27T05:15:15.034Z,5.20
2018-12-27T05:17:44.267Z,5.30
2018-12-27T05:20:13.440Z,5.30
2018-12-27T05:22:42.627Z,5.30
2018-12-27T05:25:11.798Z,5.40
2018-12-27T05:27:40.969Z,5.20
2018-12-27T05:30:10.146Z,5.30
2018-12-27T05:32:39.292Z,5.30
2018-12-27T05:35:08.494Z,5.40
2018-12-27T05:37:37.696Z,5.50
2018-12-27T05:40:07.182Z,5.40
2018-12-27T05:42:36.359Z,5.50
2018-12-27T05:45:05.851Z,5.50
2018-12-27T05:47:35.040Z,5.50
2018-12-27T05:50:04.475Z,5.40
2018-12-27T05:52:33.732Z,5.40
2018-12-27T05:55:02.904Z,5.30
2018-12-27T05:57:32.068Z,5.30
2018-12-27T06:00:01.248Z,5.20
2018-12-27T06:02:30.395Z,5.40
2018-12-27T06:04:59.579Z,5.30
2018-12-27T06:07:28.743Z,5.40
2018-12-27T06:09:57.884Z,5.40
2018-12-27T06:12:27.056Z,5.50
2018-12-27T06:14:56.219Z,5.60
2018-12-27T06:17:25.377Z,5.70
2018-12-27T06:19:54.779Z,5.60
2018-12-27T06:22:23.979Z,5.60
2018-12-27T06:24:53.177Z,5.60
2018-12-27T06:27:22.347Z,5.40
2018-12-27T06:29:51.576Z,5.50
2018-12-27T06:32:20.731Z,5.50
2018-12-27T06:34:49.891Z,5.60
2018-12-27T06:37:19.265Z,5.60
2018-12-27T06:39:48.490Z,5.50
2018-12-27T06:42:17.668Z,5.60
2018-12-27T06:44:46.833Z,5.30
2018-12-27T06:47:16.027Z,5.50
2018-12-27T06:49:45.458Z,5.60
2018-12-27T06:52:14.653Z,5.60
2018-12-27T06:54:43.851Z,5.70
2018-12-27T06:57:13.007Z,5.80
2018-12-27T06:59:42.178Z,6.10
2018-12-27T07:02:11.377Z,6.20
2018-12-27T07:04:40.540Z,5.90
2018-12-27T07:07:09.717Z,5.90
2018-12-27T07:09:38.951Z,5.80
2018-12-27T07:12:08.141Z,5.90
2018-12-27T07:14:37.314Z,5.90
2018-12-27T07:17:06.463Z,5.70
2018-12-27T07:19:35.626Z,5.60
2018-12-27T07:22:04.791Z,5.70
2018-12-27T07:24:34.024Z,5.70
2018-12-27T07:27:03.175Z,5.80
2018-12-27T07:29:32.463Z,5.70
2018-12-27T07:32:01.776Z,5.70
2018-12-27T07:34:30.965Z,5.70
2018-12-27T07:37:00.220Z,5.80
2018-12-27T07:39:29.460Z,5.80
2018-12-27T07:41:58.603Z,6.00
2018-12-27T07:44:27.810Z,5.90
2018-12-27T07:46:57.049Z,5.90
2018-12-27T07:49:26.319Z,6.00
2018-12-27T07:51:55.489Z,6.00
2018-12-27T07:54:25.076Z,5.90
2018-12-27T07:56:54.355Z,6.10
2018-12-27T07:59:23.524Z,6.10
2018-12-27T08:01:52.715Z,6.00
2018-12-27T08:04:21.872Z,5.90
2018-12-27T08:06:51.088Z,5.90
2018-12-27T08:09:20.624Z,5.80
2018-12-27T08:11:49.771Z,5.90
2018-12-27T08:14:18.979Z,6.00
2018-12-27T08:16:48.169Z,6.20
2018-12-27T08:19:17.427Z,6.10
2018-12-27T08:21:46.568Z,6.00
2018-12-27T08:24:15.852Z,6.20
2018-12-27T08:26:45.064Z,6.00
2018-12-27T08:29:14.306Z,6.20
2018-12-27T08:31:43.555Z,6.10
2018-12-27T08:34:12.739Z,5.90
2018-12-27T08:36:42.064Z,5.90
2018-12-27T08:39:11.246Z,5.90
2018-12-27T08:41:40.405Z,6.00
2018-12-27T08:44:09.685Z,6.30
2018-12-27T08:46:38.816Z,6.30
2018-12-27T08:49:08.014Z,6.40
2018-12-27T08:51:37.552Z,6.20
2018-12-27T08:54:06.721Z,6.00
2018-12-27T08:56:35.899Z,6.00
2018-12-27T08:59:05.065Z,6.00
2018-12-27T09:01:34.265Z,6.10
2018-12-27T09:04:03.461Z,6.00
2018-12-27T09:06:32.625Z,6.10
2018-12-27T09:09:01.822Z,6.30
2018-12-27T09:11:30.988Z,6.20
2018-12-27T09:14:00.180Z,6.20
2018-12-27T09:16:29.380Z,6.30
2018-12-27T09:18:58.804Z,6.60
2018-12-27T09:21:27.996Z,6.90
2018-12-27T09:23:57.182Z,6.70
2018-12-27T09:26:26.360Z,6.70
2018-12-27T09:28:55.683Z,6.60
2018-12-27T09:31:24.856Z,6.90
2018-12-27T09:33:54.106Z,7.10
2018-12-27T09:36:23.283Z,7.30
2018-12-27T09:38:52.451Z,7.40
2018-12-27T09:41:21.652Z,7.30
2018-12-27T09:43:50.953Z,7.30
2018-12-27T09:46:20.211Z,7.40
2018-12-27T09:48:49.379Z,7.50
2018-12-27T09:51:18.551Z,7.60
2018-12-27T09:53:47.739Z,7.60
2018-12-27T09:56:16.920Z,7.70
2018-12-27T09:58:46.071Z,7.60
2018-12-27T10:01:15.271Z,7.40
2018-12-27T10:03:44.587Z,7.50
2018-12-27T10:06:13.769Z,7.70
2018-12-27T10:08:42.931Z,7.80
2018-12-27T10:11:12.208Z,7.90
2018-12-27T10:13:41.415Z,8.00
2018-12-27T10:16:10.647Z,7.80
2018-12-27T10:18:39.819Z,7.60
2018-12-27T10:21:09.023Z,7.50
2018-12-27T10:23:38.219Z,7.60
2018-12-27T10:26:07.382Z,7.40
2018-12-27T10:28:36.687Z,7.30
2018-12-27T10:31:05.855Z,7.40
2018-12-27T10:33:35.084Z,7.20
2018-12-27T10:36:04.285Z,7.40
2018-12-27T10:38:33.459Z,7.40
2018-12-27T10:41:02.692Z,7.50
2018-12-27T10:43:31.855Z,7.60
2018-12-27T10:46:01.049Z,7.80
2018-12-27T10:48:30.313Z,7.90
2018-12-27T10:50:59.496Z,8.20
2018-12-27T10:53:28.643Z,8.50
2018-12-27T10:55:57.812Z,8.80
2018-12-27T10:58:27.135Z,9.20
2018-12-27T11:00:56.396Z,9.70
2018-12-27T11:03:30.517Z,10.10
2018-12-27T11:05:56.614Z,10.20
2018-12-27T11:08:25.867Z,10.20
2018-12-27T11:10:55.127Z,10.30
2018-12-27T11:13:24.326Z,10.20
2018-12-27T11:15:53.552Z,10.00
2018-12-27T11:18:22.887Z,9.90
2018-12-27T11:20:52.124Z,9.90
2018-12-27T11:23:21.322Z,10.00
2018-12-27T11:25:50.528Z,10.10
2018-12-27T11:28:19.683Z,10.20
2018-12-27T11:30:48.844Z,10.60
2018-12-27T11:33:18.023Z,11.10
2018-12-27T11:35:47.231Z,11.40
2018-12-27T11:38:16.408Z,11.60
2018-12-27T11:40:45.622Z,11.20
2018-12-27T11:43:15.117Z,10.80
2018-12-27T11:45:44.316Z,10.30
2018-12-27T11:48:13.492Z,9.80
2018-12-27T11:50:42.676Z,9.70
2018-12-27T11:53:11.858Z,9.60
2018-12-27T11:55:41.019Z,9.50
2018-12-27T11:58:10.212Z,9.40
2018-12-27T12:00:39.385Z,9.30
2018-12-27T12:03:08.806Z,9.40
2018-12-27T12:05:38.003Z,9.40
2018-12-27T12:08:07.252Z,9.40
2018-12-27T12:10:36.532Z,9.40
2018-12-27T12:13:05.732Z,9.30
2018-12-27T12:15:34.932Z,9.30
2018-12-27T12:18:04.122Z,9.60
2018-12-27T12:20:33.391Z,9.60
2018-12-27T12:23:02.588Z,9.70
2018-12-27T20:54:26.119Z,8.90
2018-12-27T20:56:55.401Z,7.60
2018-12-27T20:59:24.640Z,7.70
2018-12-27T21:01:53.873Z,7.70
2018-12-27T21:04:23.135Z,7.70
2018-12-27T21:06:52.570Z,7.80
2018-12-27T21:09:21.876Z,7.80
2018-12-27T21:11:51.156Z,7.70
2018-12-27T21:14:20.542Z,7.60
2018-12-27T21:16:49.806Z,7.50
2018-12-27T21:19:19.154Z,7.50
2018-12-27T21:21:48.390Z,7.50
2018-12-27T21:24:17.612Z,7.60
2018-12-27T21:26:46.787Z,7.30
2018-12-27T21:29:15.979Z,7.30
2018-12-27T21:31:45.176Z,7.40
2018-12-27T21:34:14.356Z,7.40
2018-12-27T21:36:43.564Z,7.50
2018-12-27T21:39:12.811Z,7.50
2018-12-27T21:41:42.095Z,7.30
2018-12-27T21:44:11.278Z,7.30
2018-12-27T21:46:40.575Z,7.30
2018-12-27T21:49:09.772Z,7.40
2018-12-27T21:51:39.043Z,7.50
2018-12-27T21:54:08.309Z,7.50
2018-12-27T21:56:37.539Z,7.50
2018-12-27T21:59:06.771Z,7.50
2018-12-27T22:01:35.953Z,7.40
2018-12-27T22:04:05.166Z,7.40
2018-12-27T22:06:34.378Z,7.50
2018-12-27T22:09:03.959Z,7.50
2018-12-27T22:11:33.232Z,7.40
2018-12-27T22:14:02.430Z,7.50
2018-12-27T22:16:31.640Z,7.30
2018-12-27T22:19:00.877Z,7.20
2018-12-27T22:21:30.221Z,6.90
2018-12-27T22:23:59.454Z,6.90
2018-12-27T22:26:28.739Z,6.80
2018-12-27T22:28:58.098Z,7.00
2018-12-27T22:31:27.372Z,7.00
2018-12-27T22:33:56.697Z,7.10
2018-12-27T22:36:25.901Z,7.00
2018-12-27T22:38:55.181Z,6.90
2018-12-27T22:41:24.382Z,7.10
2018-12-27T22:43:53.580Z,7.00
2018-12-27T22:46:22.813Z,6.80
2018-12-27T22:48:51.968Z,6.90
2018-12-27T22:51:21.169Z,7.00
2018-12-27T22:53:50.335Z,6.90
2018-12-27T22:56:19.627Z,6.90
2018-12-27T22:58:48.818Z,6.90
2018-12-27T23:01:18.021Z,6.80
2018-12-27T23:03:47.304Z,6.80
2018-12-27T23:06:16.516Z,6.60
2018-12-27T23:08:45.716Z,6.60
2018-12-27T23:11:14.936Z,6.80
2018-12-27T23:13:44.123Z,6.80
2018-12-27T23:16:13.389Z,7.00
2018-12-27T23:18:42.624Z,7.10
2018-12-27T23:21:11.840Z,7.10
2018-12-27T23:23:41.020Z,7.20
2018-12-27T23:26:10.283Z,7.20
2018-12-27T23:28:39.465Z,7.00
2018-12-27T23:31:08.725Z,7.00
2018-12-27T23:33:37.899Z,7.10
2018-12-27T23:36:07.122Z,7.10
2018-12-27T23:38:36.292Z,7.30
2018-12-27T23:41:05.488Z,7.30
2018-12-27T23:43:34.691Z,7.20
2018-12-27T23:46:03.866Z,7.10
2018-12-27T23:48:33.037Z,7.30
2018-12-27T23:51:02.195Z,7.30
2018-12-27T23:53:31.468Z,7.20
2018-12-27T23:56:00.619Z,7.30
2018-12-27T23:58:29.881Z,7.40
